Time;durP1;ratioP1;P1;durP2;ratioP2;P2;SDS_P1;SDS_P2;PMS_P1;PMS_P2;Temp;Humidity;BMP_temperature;BMP_pressure;BME280_temperature;BME280_humidity;BME280_pressure;Samples;Min_cycle;Max_cycle;Signal;HPM_P1;HPM_P2
2023/04/11 00:02:01;;;;;;;56.17;24.02;;;;;;;;;;8432317;28;20100;-90
2023/04/11 00:06:05;;;;;;;56.25;23.42;;;;;;;;;;8434393;28;20043;-91
2023/04/11 00:10:08;;;;;;;49.78;24.75;;;;;;;;;;8434473;28;20048;-90
2023/04/11 00:14:11;;;;;;;48.92;22.98;;;;;;;;;;8437506;28;20521;-91
2023/04/11 00:18:17;;;;;;;54.05;25.08;;;;;;;;;;8435763;28;20412;-90
2023/04/11 00:22:23;;;;;;;52.17;24.45;;;;;;;;;;8435140;28;20536;-91
2023/04/11 00:26:26;;;;;;;51.97;23.08;;;;;;;;;;8432020;28;20071;-90
2023/04/11 00:30:29;;;;;;;54.13;24.88;;;;;;;;;;8432195;28;20640;-90
2023/04/11 00:34:34;;;;;;;69.25;29.65;;;;;;;;;;8431975;28;20047;-91
2023/04/11 00:38:38;;;;;;;72.53;30.88;;;;;;;;;;8433298;28;20551;-90
2023/04/11 00:42:41;;;;;;;66.57;28.95;;;;;;;;;;8434222;28;20411;-91
2023/04/11 00:46:46;;;;;;;67.50;30.65;;;;;;;;;;8433704;28;20052;-91
2023/04/11 00:50:50;;;;;;;64.25;31.00;;;;;;;;;;8431140;28;20068;-89
2023/04/11 00:54:54;;;;;;;63.80;29.08;;;;;;;;;;8433766;28;20043;-91
2023/04/11 00:58:59;;;;;;;61.58;29.25;;;;;;;;;;8447881;28;20071;-89
2023/04/11 01:03:03;;;;;;;59.95;26.77;;;;;;;;;;8453347;28;20048;-90
2023/04/11 01:07:09;;;;;;;63.50;27.20;;;;;;;;;;8454611;28;20479;-90
2023/04/11 01:11:15;;;;;;;64.45;30.75;;;;;;;;;;8447170;28;20502;-90
2023/04/11 01:15:18;;;;;;;69.43;31.13;;;;;;;;;;8425025;28;20051;-90
2023/04/11 01:19:23;;;;;;;69.82;30.85;;;;;;;;;;8419568;28;20047;-89
2023/04/11 01:23:28;;;;;;;68.55;30.80;;;;;;;;;;8424216;28;20438;-89
2023/04/11 01:27:32;;;;;;;68.10;30.85;;;;;;;;;;8429179;28;20048;-91
2023/04/11 01:31:36;;;;;;;63.75;30.25;;;;;;;;;;8428901;28;20044;-93
2023/04/11 01:35:39;;;;;;;67.45;29.75;;;;;;;;;;8428853;28;20513;-89
2023/04/11 01:39:44;;;;;;;73.25;32.10;;;;;;;;;;8428537;28;20088;-90
2023/04/11 01:43:47;;;;;;;65.82;31.25;;;;;;;;;;8429502;28;20132;-90
2023/04/11 01:47:51;;;;;;;67.30;30.48;;;;;;;;;;8429456;28;20056;-89
2023/04/11 01:51:54;;;;;;;66.45;30.55;;;;;;;;;;8429117;28;20101;-88
2023/04/11 01:55:59;;;;;;;67.75;30.33;;;;;;;;;;8429597;28;20044;-89
2023/04/11 02:00:04;;;;;;;66.75;30.55;;;;;;;;;;8428654;28;20118;-89
2023/04/11 02:04:07;;;;;;;69.68;32.35;;;;;;;;;;8429153;28;20070;-90
2023/04/11 02:08:11;;;;;;;63.75;28.50;;;;;;;;;;8429203;28;20044;-90
2023/04/11 02:12:15;;;;;;;68.82;29.00;;;;;;;;;;8429120;28;20133;-90
2023/04/11 02:16:19;;;;;;;71.10;31.20;;;;;;;;;;8432693;28;20471;-89
2023/04/11 02:20:22;;;;;;;66.00;29.23;;;;;;;;;;8435519;28;20055;-90
2023/04/11 02:24:27;;;;;;;147.25;52.88;;;;;;;;;;8435690;28;20044;-89
2023/04/11 02:28:32;;;;;;;99.72;38.05;;;;;;;;;;8435695;28;20048;-90
2023/04/11 02:32:36;;;;;;;445.70;166.07;;;;;;;;;;8422032;28;20044;-90
2023/04/11 02:36:40;;;;;;;179.02;72.70;;;;;;;;;;8435349;28;20039;-91
2023/04/11 02:40:43;;;;;;;88.53;38.58;;;;;;;;;;8435244;28;20496;-92
2023/04/11 02:44:48;;;;;;;114.40;48.33;;;;;;;;;;8444379;28;20077;-91
2023/04/11 02:48:51;;;;;;;165.43;69.38;;;;;;;;;;8439838;28;20448;-91
2023/04/11 02:52:54;;;;;;;154.40;64.20;;;;;;;;;;8434463;28;20092;-91
2023/04/11 02:56:57;;;;;;;123.07;50.28;;;;;;;;;;8434034;28;20043;-91
2023/04/11 03:01:02;;;;;;;98.45;41.15;;;;;;;;;;8433779;28;20502;-91
2023/04/11 03:05:06;;;;;;;137.80;63.58;;;;;;;;;;8420828;28;20040;-90
2023/04/11 03:09:09;;;;;;;114.25;47.53;;;;;;;;;;8433684;28;20479;-91
2023/04/11 03:13:12;;;;;;;110.88;44.28;;;;;;;;;;8433662;28;20096;-91
2023/04/11 03:17:16;;;;;;;111.05;45.97;;;;;;;;;;8433477;28;20052;-90
2023/04/11 03:21:20;;;;;;;107.70;47.45;;;;;;;;;;8433544;28;20059;-90
2023/04/11 03:25:23;;;;;;;136.20;51.55;;;;;;;;;;8432461;28;20449;-91
2023/04/11 03:29:26;;;;;;;109.63;44.28;;;;;;;;;;8433054;28;20119;-90
2023/04/11 03:33:30;;;;;;;89.90;39.17;;;;;;;;;;8432745;28;20123;-91
2023/04/11 03:37:33;;;;;;;94.95;39.85;;;;;;;;;;8432774;28;20075;-91
2023/04/11 03:41:36;;;;;;;127.65;57.42;;;;;;;;;;8432658;28;20051;-91
2023/04/11 03:45:39;;;;;;;97.38;35.67;;;;;;;;;;8432434;28;20474;-89
2023/04/11 03:49:44;;;;;;;101.68;37.33;;;;;;;;;;8444407;28;20119;-90
2023/04/11 03:53:47;;;;;;;141.05;61.88;;;;;;;;;;8451768;28;20131;-90
2023/04/11 03:57:50;;;;;;;127.88;49.60;;;;;;;;;;8433726;28;20044;-91
2023/04/11 04:01:53;;;;;;;108.65;42.20;;;;;;;;;;8423994;28;20185;-91
2023/04/11 04:05:58;;;;;;;98.90;39.33;;;;;;;;;;8437762;28;20078;-91
2023/04/11 04:10:01;;;;;;;102.40;40.70;;;;;;;;;;8432143;28;20241;-90
2023/04/11 04:14:04;;;;;;;93.32;38.13;;;;;;;;;;8431612;28;20059;-91
2023/04/11 04:18:07;;;;;;;89.90;36.55;;;;;;;;;;8431673;28;20145;-90
2023/04/11 04:22:12;;;;;;;83.95;34.05;;;;;;;;;;8431682;28;20508;-89
2023/04/11 04:26:16;;;;;;;83.70;32.88;;;;;;;;;;8426997;28;20044;-90
2023/04/11 04:30:20;;;;;;;71.50;29.25;;;;;;;;;;8430084;28;20050;-89
2023/04/11 04:34:23;;;;;;;85.15;35.13;;;;;;;;;;8424252;28;20056;-89
2023/04/11 04:38:28;;;;;;;94.10;36.78;;;;;;;;;;8428457;28;20601;-88
2023/04/11 04:42:31;;;;;;;100.65;39.55;;;;;;;;;;8429617;28;20106;-89
2023/04/11 04:46:35;;;;;;;93.80;35.42;;;;;;;;;;8429392;28;20450;-88
2023/04/11 04:50:38;;;;;;;98.78;36.92;;;;;;;;;;8429361;28;20126;-88
2023/04/11 04:54:43;;;;;;;75.93;30.63;;;;;;;;;;8429283;28;20048;-89
2023/04/11 04:58:46;;;;;;;176.02;45.17;;;;;;;;;;8427053;28;20058;-90
2023/04/11 05:02:49;;;;;;;64.85;29.08;;;;;;;;;;8427571;28;20044;-88
2023/04/11 05:06:52;;;;;;;38.33;21.90;;;;;;;;;;8427126;28;20089;-90
2023/04/11 05:10:56;;;;;;;135.57;65.00;;;;;;;;;;8428542;28;20100;-91
2023/04/11 05:14:59;;;;;;;33.40;22.20;;;;;;;;;;8430503;28;20055;-91
2023/04/11 05:19:02;;;;;;;24.17;15.93;;;;;;;;;;8436245;28;20121;-91
2023/04/11 05:23:05;;;;;;;20.38;15.40;;;;;;;;;;8436459;28;20051;-91
2023/04/11 05:27:10;;;;;;;30.27;21.55;;;;;;;;;;8437831;28;20127;-91
2023/04/11 05:31:13;;;;;;;40.45;28.27;;;;;;;;;;8439549;28;20060;-92
2023/04/11 05:35:17;;;;;;;32.35;20.65;;;;;;;;;;8438845;28;20105;-92
2023/04/11 05:39:21;;;;;;;37.70;24.13;;;;;;;;;;8424139;28;20147;-87
2023/04/11 05:43:25;;;;;;;25.88;17.25;;;;;;;;;;8424462;28;20040;-90
2023/04/11 05:47:28;;;;;;;33.85;24.08;;;;;;;;;;8426924;28;20044;-88
2023/04/11 05:51:32;;;;;;;25.00;17.52;;;;;;;;;;8432303;28;20108;-88
2023/04/11 05:55:35;;;;;;;11.77;8.38;;;;;;;;;;8435145;28;20535;-90
2023/04/11 05:59:39;;;;;;;10.93;6.03;;;;;;;;;;8435527;28;20055;-91
2023/04/11 06:03:42;;;;;;;9.02;6.78;;;;;;;;;;8435350;28;20126;-89
2023/04/11 06:07:45;;;;;;;7.75;4.90;;;;;;;;;;8434277;28;20044;-93
2023/04/11 06:11:48;;;;;;;7.20;5.05;;;;;;;;;;8434008;28;20043;-89
2023/04/11 06:15:52;;;;;;;7.45;5.20;;;;;;;;;;8420291;28;20048;-90
2023/04/11 06:19:55;;;;;;;7.82;4.70;;;;;;;;;;8431302;28;20078;-90
2023/04/11 06:24:05;;;;;;;5.88;4.32;;;;;;;;;;8424905;28;20478;-90
2023/04/11 06:28:08;;;;;;;6.63;4.40;;;;;;;;;;8432297;28;20048;-90
2023/04/11 06:32:14;;;;;;;6.93;3.88;;;;;;;;;;8429833;28;20040;-94
2023/04/11 06:36:17;;;;;;;8.65;4.80;;;;;;;;;;8438863;28;20039;-90
2023/04/11 06:40:21;;;;;;;8.50;5.53;;;;;;;;;;8435199;28;20069;-90
2023/04/11 06:44:24;;;;;;;6.90;5.60;;;;;;;;;;8425083;28;20040;-92
2023/04/11 06:48:29;;;;;;;5.53;4.28;;;;;;;;;;8426092;28;20459;-91
2023/04/11 06:52:32;;;;;;;8.32;4.28;;;;;;;;;;8419270;28;20044;-91
2023/04/11 06:56:35;;;;;;;5.45;3.72;;;;;;;;;;8423489;28;20114;-93
2023/04/11 07:00:39;;;;;;;5.55;3.65;;;;;;;;;;8421341;28;20152;-92
2023/04/11 07:04:43;;;;;;;5.93;3.75;;;;;;;;;;8431198;28;20032;-93
2023/04/11 07:08:46;;;;;;;6.25;4.80;;;;;;;;;;8433127;28;20494;-93
2023/04/11 07:12:49;;;;;;;6.25;4.90;;;;;;;;;;8431181;28;20036;-93
2023/04/11 07:16:52;;;;;;;4.97;3.00;;;;;;;;;;8424543;28;20070;-93
2023/04/11 07:20:57;;;;;;;4.90;3.10;;;;;;;;;;8428261;28;20058;-93
2023/04/11 07:25:01;;;;;;;4.95;3.30;;;;;;;;;;8421583;28;20031;-92
2023/04/11 07:29:09;;;;;;;5.43;3.20;;;;;;;;;;8419937;28;20520;-91
2023/04/11 07:33:12;;;;;;;6.30;3.17;;;;;;;;;;8413686;28;20048;-92
2023/04/11 07:37:17;;;;;;;6.50;4.80;;;;;;;;;;8426628;28;20052;-91
2023/04/11 07:41:21;;;;;;;5.22;2.78;;;;;;;;;;8426276;28;20043;-92
2023/04/11 07:45:25;;;;;;;8.13;3.22;;;;;;;;;;8434712;28;20047;-91
2023/04/11 07:49:28;;;;;;;6.50;4.20;;;;;;;;;;8428822;28;20048;-91
2023/04/11 07:53:33;;;;;;;4.07;2.70;;;;;;;;;;8428309;28;20140;-91
2023/04/11 07:57:36;;;;;;;5.05;3.60;;;;;;;;;;8430526;28;20127;-92
2023/04/11 08:01:39;;;;;;;4.78;3.15;;;;;;;;;;8430624;28;20647;-90
2023/04/11 08:05:43;;;;;;;4.00;2.58;;;;;;;;;;8429460;28;20052;-91
2023/04/11 08:09:47;;;;;;;2.67;2.22;;;;;;;;;;8428651;28;20122;-90
2023/04/11 08:13:50;;;;;;;4.20;2.35;;;;;;;;;;8429578;28;20449;-90
2023/04/11 08:17:55;;;;;;;3.50;2.75;;;;;;;;;;8429054;28;20466;-90
2023/04/11 08:21:58;;;;;;;3.67;2.35;;;;;;;;;;8422006;28;20086;-90
2023/04/11 08:26:03;;;;;;;2.55;2.10;;;;;;;;;;8430228;28;20060;-90
2023/04/11 08:30:09;;;;;;;2.83;2.10;;;;;;;;;;8429957;28;20551;-90
2023/04/11 08:34:12;;;;;;;2.42;1.90;;;;;;;;;;8429031;28;20044;-89
2023/04/11 08:38:15;;;;;;;2.63;1.90;;;;;;;;;;8429984;28;20131;-92
2023/04/11 08:42:24;;;;;;;16.88;9.52;;;;;;;;;;8429858;28;20048;-89
2023/04/11 08:46:26;;;;;;;12.38;5.50;;;;;;;;;;8428965;28;20503;-89
2023/04/11 08:50:29;;;;;;;4.03;2.97;;;;;;;;;;8429194;28;20544;-89
2023/04/11 08:54:32;;;;;;;4.18;2.88;;;;;;;;;;8429263;28;20044;-91
2023/04/11 08:58:37;;;;;;;6.95;4.60;;;;;;;;;;8427401;28;20052;-90
2023/04/11 09:03:01;;;;;;;3.15;2.22;;;;;;;;;;8428797;28;20070;-90
2023/04/11 09:07:04;;;;;;;3.75;2.70;;;;;;;;;;8429806;28;20146;-91
2023/04/11 09:11:07;;;;;;;6.65;4.05;;;;;;;;;;8427989;28;20043;-90
2023/04/11 09:15:24;;;;;;;7.32;4.95;;;;;;;;;;8419210;28;20048;-89
2023/04/11 09:19:29;;;;;;;4.13;2.70;;;;;;;;;;8428384;28;20044;-92
2023/04/11 09:23:32;;;;;;;3.83;2.88;;;;;;;;;;8430319;28;20067;-90
2023/04/11 09:27:37;;;;;;;3.67;2.70;;;;;;;;;;8430756;28;20067;-89
2023/04/11 09:31:43;;;;;;;4.28;3.13;;;;;;;;;;8429368;28;20096;-90
2023/04/11 09:35:48;;;;;;;3.50;2.78;;;;;;;;;;8416690;28;20131;-89
2023/04/11 09:39:59;;;;;;;153.60;56.97;;;;;;;;;;8427882;28;20044;-90
2023/04/11 09:44:02;;;;;;;32.63;12.87;;;;;;;;;;8428985;28;20054;-89
2023/04/11 09:48:07;;;;;;;53.88;22.67;;;;;;;;;;8428515;28;20044;-89
2023/04/11 09:52:10;;;;;;;51.20;24.75;;;;;;;;;;8429027;28;20463;-91
2023/04/11 09:56:14;;;;;;;8.52;4.90;;;;;;;;;;8422951;28;20036;-88
2023/04/11 10:00:20;;;;;;;22.35;10.63;;;;;;;;;;8428748;28;20119;-89
2023/04/11 10:04:27;;;;;;;10.77;6.13;;;;;;;;;;8429898;28;20040;-88
2023/04/11 10:08:32;;;;;;;31.98;18.73;;;;;;;;;;8425798;28;20048;-90
2023/04/11 10:12:35;;;;;;;8.30;4.10;;;;;;;;;;8420669;28;20051;-89
2023/04/11 10:17:13;;;;;;;14.75;7.25;;;;;;;;;;8421035;28;20040;-90
2023/04/11 10:21:42;;;;;;;5.68;4.10;;;;;;;;;;8426770;28;20119;-90
2023/04/11 10:25:54;;;;;;;9.13;4.88;;;;;;;;;;8431741;28;20091;-90
2023/04/11 10:29:57;;;;;;;25.95;13.85;;;;;;;;;;8427179;28;20055;-91
2023/04/11 10:34:13;;;;;;;13.63;8.02;;;;;;;;;;8426578;28;20040;-92
2023/04/11 10:38:47;;;;;;;16.13;6.88;;;;;;;;;;8434541;28;20044;-92
2023/04/11 10:42:50;;;;;;;9.30;5.07;;;;;;;;;;8429423;28;20500;-90
2023/04/11 10:46:55;;;;;;;30.55;16.15;;;;;;;;;;8417228;28;20048;-88
2023/04/11 10:50:58;;;;;;;5.97;4.22;;;;;;;;;;8424351;28;20044;-89
2023/04/11 10:55:16;;;;;;;11.23;5.95;;;;;;;;;;8415975;28;20052;-90
2023/04/11 10:59:53;;;;;;;7.38;4.70;;;;;;;;;;8424541;28;20150;-93
2023/04/11 11:03:57;;;;;;;5.68;3.50;;;;;;;;;;8430488;28;20125;-90
2023/04/11 11:08:00;;;;;;;7.43;4.25;;;;;;;;;;8445938;28;20048;-91
2023/04/11 11:12:12;;;;;;;5.85;3.92;;;;;;;;;;8434021;28;20056;-89
2023/04/11 11:16:20;;;;;;;7.47;4.15;;;;;;;;;;8441748;28;20096;-91
2023/04/11 11:20:23;;;;;;;6.40;4.32;;;;;;;;;;8420457;28;20055;-91
2023/04/11 11:24:26;;;;;;;5.82;3.83;;;;;;;;;;8443360;28;20048;-93
2023/04/11 11:28:31;;;;;;;5.43;3.58;;;;;;;;;;8428939;28;20071;-90
2023/04/11 11:32:34;;;;;;;7.03;3.67;;;;;;;;;;8431795;28;20052;-91
2023/04/11 11:36:41;;;;;;;96.95;39.75;;;;;;;;;;8437202;28;20078;-93
2023/04/11 11:40:45;;;;;;;26.08;12.13;;;;;;;;;;8404481;28;20048;-94
2023/04/11 11:44:50;;;;;;;19.02;7.85;;;;;;;;;;8424883;28;20132;-93
2023/04/11 11:49:00;;;;;;;21.38;8.00;;;;;;;;;;8418022;28;20117;-94
2023/04/11 11:53:13;;;;;;;5.85;3.97;;;;;;;;;;8425183;28;20044;-93
2023/04/11 11:57:22;;;;;;;5.60;3.83;;;;;;;;;;8421084;28;20036;-92
2023/04/11 12:01:27;;;;;;;5.88;4.00;;;;;;;;;;8424438;28;20044;-91
2023/04/11 12:05:32;;;;;;;7.15;4.40;;;;;;;;;;8424172;28;20124;-93
2023/04/11 12:09:35;;;;;;;23.15;13.88;;;;;;;;;;8427293;28;20048;-92
2023/04/11 12:13:37;;;;;;;37.03;18.58;;;;;;;;;;8424591;28;20415;-93
2023/04/11 12:17:42;;;;;;;13.13;7.75;;;;;;;;;;8416402;28;20445;-93
2023/04/11 12:21:46;;;;;;;8.05;5.68;;;;;;;;;;8427906;28;20610;-92
2023/04/11 12:25:49;;;;;;;7.18;4.93;;;;;;;;;;8436250;28;20052;-95
2023/04/11 12:29:53;;;;;;;6.63;4.10;;;;;;;;;;8428848;28;20070;-93
2023/04/11 12:34:01;;;;;;;9.85;5.25;;;;;;;;;;8430364;28;20393;-94
2023/04/11 12:38:06;;;;;;;7.68;5.05;;;;;;;;;;8426429;28;20094;-93
2023/04/11 12:42:09;;;;;;;6.85;4.45;;;;;;;;;;8425358;28;20066;-93
2023/04/11 12:46:12;;;;;;;9.88;6.20;;;;;;;;;;8426866;28;20050;-93
2023/04/11 12:50:17;;;;;;;9.00;5.20;;;;;;;;;;8423823;28;20467;-93
2023/04/11 12:54:20;;;;;;;12.15;5.57;;;;;;;;;;8425484;28;20043;-91
2023/04/11 12:58:23;;;;;;;7.22;4.78;;;;;;;;;;8422882;28;20143;-91
2023/04/11 13:02:26;;;;;;;21.60;6.00;;;;;;;;;;8427944;28;20421;-92
2023/04/11 13:06:32;;;;;;;7.15;4.88;;;;;;;;;;8428504;28;20036;-91
2023/04/11 13:10:35;;;;;;;8.95;5.53;;;;;;;;;;8429154;28;20044;-93
2023/04/11 13:14:38;;;;;;;7.40;4.95;;;;;;;;;;8429445;28;20072;-92
2023/04/11 13:18:42;;;;;;;7.88;5.53;;;;;;;;;;8434753;28;20052;-95
2023/04/11 13:22:48;;;;;;;6.78;5.07;;;;;;;;;;8435311;28;20075;-94
2023/04/11 13:26:51;;;;;;;7.45;5.13;;;;;;;;;;8435507;28;20040;-94
2023/04/11 13:30:54;;;;;;;8.05;4.88;;;;;;;;;;8441028;28;20419;-95
2023/04/11 13:35:02;;;;;;;6.88;4.00;;;;;;;;;;8431140;28;20047;-93
2023/04/11 13:39:07;;;;;;;7.00;4.90;;;;;;;;;;8432311;28;20090;-91
2023/04/11 13:43:11;;;;;;;7.95;5.03;;;;;;;;;;8429523;28;20088;-89
2023/04/11 13:47:14;;;;;;;7.03;4.60;;;;;;;;;;8428679;28;20044;-88
2023/04/11 13:51:17;;;;;;;5.85;3.58;;;;;;;;;;8427940;28;20352;-91
2023/04/11 13:55:22;;;;;;;6.95;4.43;;;;;;;;;;8421686;28;20068;-92
2023/04/11 13:59:26;;;;;;;6.30;4.32;;;;;;;;;;8429394;28;20040;-92
2023/04/11 14:03:32;;;;;;;6.78;4.38;;;;;;;;;;8432960;28;20547;-89
2023/04/11 14:07:35;;;;;;;7.43;5.05;;;;;;;;;;8418178;28;20051;-89
2023/04/11 14:11:39;;;;;;;7.88;5.03;;;;;;;;;;8424073;28;20131;-90
2023/04/11 14:15:42;;;;;;;7.95;5.30;;;;;;;;;;8430550;28;20059;-92
2023/04/11 14:19:45;;;;;;;9.77;5.75;;;;;;;;;;8419275;28;20482;-90
2023/04/11 14:23:48;;;;;;;7.85;5.30;;;;;;;;;;8419568;28;20048;-88
2023/04/11 14:27:54;;;;;;;7.00;5.00;;;;;;;;;;8424369;28;20040;-89
2023/04/11 14:31:57;;;;;;;7.50;4.68;;;;;;;;;;8412263;28;20075;-91
2023/04/11 14:36:00;;;;;;;13.07;6.32;;;;;;;;;;8416174;28;20544;-90
2023/04/11 14:40:06;;;;;;;9.05;5.15;;;;;;;;;;8422121;28;20131;-92
2023/04/11 14:44:11;;;;;;;7.78;5.07;;;;;;;;;;8421972;28;20526;-90
2023/04/11 14:48:14;;;;;;;7.18;5.22;;;;;;;;;;8405720;28;20055;-89
2023/04/11 14:52:17;;;;;;;6.88;4.13;;;;;;;;;;8439545;28;20691;-90
2023/04/11 14:56:21;;;;;;;8.02;5.30;;;;;;;;;;8434931;28;20731;-91
2023/04/11 15:00:30;;;;;;;7.60;5.38;;;;;;;;;;8434808;28;20040;-91
2023/04/11 15:04:33;;;;;;;6.85;4.68;;;;;;;;;;8433981;28;20759;-93
2023/04/11 15:08:37;;;;;;;16.80;8.10;;;;;;;;;;8425369;28;20495;-90
2023/04/11 15:12:40;;;;;;;5.70;4.07;;;;;;;;;;8429157;28;20491;-89
2023/04/11 15:16:46;;;;;;;7.45;4.82;;;;;;;;;;8428800;28;20483;-90
2023/04/11 15:20:51;;;;;;;7.30;4.70;;;;;;;;;;8430645;28;20120;-92
2023/04/11 15:24:54;;;;;;;7.43;5.07;;;;;;;;;;8425113;28;20105;-91
2023/04/11 15:28:57;;;;;;;6.55;4.70;;;;;;;;;;8428886;28;20492;-88
2023/04/11 15:33:05;;;;;;;8.43;4.72;;;;;;;;;;8421953;28;20039;-90
2023/04/11 15:37:10;;;;;;;7.43;4.80;;;;;;;;;;8416557;28;20127;-90
2023/04/11 15:41:13;;;;;;;18.17;9.10;;;;;;;;;;8416785;28;20051;-90
2023/04/11 15:45:17;;;;;;;6.72;4.43;;;;;;;;;;8423707;28;20117;-90
2023/04/11 15:49:23;;;;;;;7.03;4.72;;;;;;;;;;8410156;28;20052;-92
2023/04/11 15:53:30;;;;;;;7.55;4.80;;;;;;;;;;8432142;28;20074;-91
2023/04/11 15:57:33;;;;;;;12.05;7.80;;;;;;;;;;8427341;28;20052;-91
2023/04/11 16:01:39;;;;;;;11.55;6.68;;;;;;;;;;8422324;28;20052;-89
2023/04/11 16:05:46;;;;;;;15.00;9.60;;;;;;;;;;8427084;28;20938;-91
2023/04/11 16:09:57;;;;;;;9.13;5.95;;;;;;;;;;8419289;28;20451;-92
2023/04/11 16:14:00;;;;;;;10.52;6.50;;;;;;;;;;8422536;28;20069;-90
2023/04/11 16:18:04;;;;;;;13.07;7.60;;;;;;;;;;8414449;28;20056;-91
2023/04/11 16:22:11;;;;;;;12.25;6.75;;;;;;;;;;8426599;28;20048;-91
2023/04/11 16:26:15;;;;;;;15.40;8.73;;;;;;;;;;8393310;28;20079;-91
2023/04/11 16:30:20;;;;;;;13.30;7.65;;;;;;;;;;8414355;28;20563;-90
2023/04/11 16:34:23;;;;;;;15.85;8.18;;;;;;;;;;8432068;28;20063;-87
2023/04/11 16:38:30;;;;;;;14.65;9.18;;;;;;;;;;8429663;28;20400;-90
2023/04/11 16:42:34;;;;;;;14.63;9.27;;;;;;;;;;8432953;28;20123;-90
2023/04/11 16:46:38;;;;;;;28.08;15.48;;;;;;;;;;8434294;28;20052;-90
2023/04/11 16:50:40;;;;;;;23.27;13.73;;;;;;;;;;8434469;28;20071;-90
2023/04/11 16:54:46;;;;;;;20.60;12.75;;;;;;;;;;8430516;28;20047;-91
2023/04/11 16:58:49;;;;;;;19.38;11.07;;;;;;;;;;8426399;28;20048;-90
2023/04/11 17:02:56;;;;;;;31.80;17.73;;;;;;;;;;8423092;28;20062;-90
2023/04/11 17:06:59;;;;;;;17.25;9.05;;;;;;;;;;8430064;28;20036;-90
2023/04/11 17:11:07;;;;;;;24.88;13.52;;;;;;;;;;8430249;28;20048;-89
2023/04/11 17:15:13;;;;;;;30.50;16.63;;;;;;;;;;8440928;28;20058;-92
2023/04/11 17:19:18;;;;;;;27.60;17.02;;;;;;;;;;8431913;28;20107;-91
2023/04/11 17:23:23;;;;;;;43.95;21.75;;;;;;;;;;8421219;28;20861;-91
2023/04/11 17:27:30;;;;;;;127.03;57.97;;;;;;;;;;8427727;28;20043;-90
2023/04/11 17:31:33;;;;;;;52.90;30.35;;;;;;;;;;8428881;28;20508;-90
2023/04/11 17:35:39;;;;;;;32.65;21.40;;;;;;;;;;8427361;28;20130;-89
2023/04/11 17:39:42;;;;;;;23.08;14.68;;;;;;;;;;8411677;28;20048;-91
2023/04/11 17:43:47;;;;;;;24.92;15.23;;;;;;;;;;8427779;28;20123;-91
2023/04/11 17:47:51;;;;;;;22.65;14.65;;;;;;;;;;8442681;28;20566;-91
2023/04/11 17:51:55;;;;;;;24.58;15.52;;;;;;;;;;8438415;28;20044;-91
2023/04/11 17:56:03;;;;;;;34.00;16.45;;;;;;;;;;8438728;28;20055;-90
2023/04/11 18:00:17;;;;;;;29.92;16.98;;;;;;;;;;8438316;28;20120;-92
2023/04/11 18:04:22;;;;;;;42.67;21.45;;;;;;;;;;8428979;28;20044;-92
2023/04/11 18:08:25;;;;;;;27.42;16.90;;;;;;;;;;8435352;28;20119;-91
2023/04/11 18:12:28;;;;;;;23.77;15.25;;;;;;;;;;8435154;28;20480;-90
2023/04/11 18:16:34;;;;;;;20.33;11.77;;;;;;;;;;8435382;28;20098;-90
2023/04/11 18:20:38;;;;;;;224.43;125.38;;;;;;;;;;8435660;28;20132;-90
2023/04/11 18:24:41;;;;;;;63.85;23.02;;;;;;;;;;8435720;28;20044;-90
2023/04/11 18:28:44;;;;;;;65.68;20.48;;;;;;;;;;8435694;28;20046;-90
2023/04/11 18:32:52;;;;;;;92.13;61.75;;;;;;;;;;8435115;28;20055;-90
2023/04/11 18:36:56;;;;;;;40.35;17.83;;;;;;;;;;8434637;28;20054;-89
2023/04/11 18:41:02;;;;;;;22.60;12.25;;;;;;;;;;8435709;28;20135;-90
2023/04/11 18:45:07;;;;;;;24.27;14.00;;;;;;;;;;8435016;28;20059;-90
2023/04/11 18:49:12;;;;;;;23.48;13.02;;;;;;;;;;8434914;28;20047;-90
2023/04/11 18:53:15;;;;;;;25.40;14.15;;;;;;;;;;8434334;28;20055;-90
2023/04/11 18:57:18;;;;;;;22.65;12.75;;;;;;;;;;8433044;28;20047;-89
2023/04/11 19:01:23;;;;;;;22.27;12.18;;;;;;;;;;8433797;28;20067;-89
2023/04/11 19:05:34;;;;;;;16.98;10.52;;;;;;;;;;8434313;28;20476;-90
2023/04/11 19:09:39;;;;;;;17.27;10.45;;;;;;;;;;8434458;28;20044;-90
2023/04/11 19:13:46;;;;;;;19.27;10.50;;;;;;;;;;8434612;28;20069;-90
2023/04/11 19:17:50;;;;;;;17.25;9.65;;;;;;;;;;8432456;28;20496;-90
2023/04/11 19:21:56;;;;;;;16.35;8.32;;;;;;;;;;8433725;28;20128;-90
2023/04/11 19:26:01;;;;;;;23.95;9.73;;;;;;;;;;8433859;28;20040;-90
2023/04/11 19:30:07;;;;;;;26.05;10.55;;;;;;;;;;8433688;28;20092;-91
2023/04/11 19:34:14;;;;;;;17.00;9.13;;;;;;;;;;8433424;28;20067;-91
2023/04/11 19:38:19;;;;;;;17.60;9.07;;;;;;;;;;8431594;28;20044;-89
2023/04/11 19:42:26;;;;;;;16.35;8.45;;;;;;;;;;8433567;28;20064;-91
2023/04/11 19:46:30;;;;;;;19.42;8.75;;;;;;;;;;8432644;28;20044;-91
2023/04/11 19:50:35;;;;;;;24.10;10.40;;;;;;;;;;8433003;28;20448;-90
2023/04/11 19:54:42;;;;;;;22.17;10.77;;;;;;;;;;8432485;28;20079;-91
2023/04/11 19:58:46;;;;;;;19.17;11.10;;;;;;;;;;8432278;28;20068;-90
2023/04/11 20:02:53;;;;;;;18.13;10.27;;;;;;;;;;8431574;28;20051;-90
2023/04/11 20:07:05;;;;;;;22.33;13.00;;;;;;;;;;8432558;28;20047;-91
2023/04/11 20:11:16;;;;;;;22.92;12.55;;;;;;;;;;8432182;28;20097;-90
2023/04/11 20:15:21;;;;;;;24.20;13.55;;;;;;;;;;8432256;28;20083;-88
2023/04/11 20:19:27;;;;;;;22.77;12.90;;;;;;;;;;8431997;28;20040;-91
2023/04/11 20:23:32;;;;;;;22.75;10.70;;;;;;;;;;8431633;28;20040;-90
2023/04/11 20:27:37;;;;;;;22.52;12.32;;;;;;;;;;8431018;28;20048;-90
2023/04/11 20:31:43;;;;;;;23.00;12.68;;;;;;;;;;8432118;28;20071;-89
2023/04/11 20:35:48;;;;;;;24.55;12.68;;;;;;;;;;8418599;28;20412;-91
2023/04/11 20:39:51;;;;;;;23.33;13.35;;;;;;;;;;8431444;28;20043;-90
2023/04/11 20:43:55;;;;;;;33.22;13.70;;;;;;;;;;8430644;28;20119;-91
2023/04/11 20:48:00;;;;;;;25.98;13.23;;;;;;;;;;8430761;28;20488;-90
2023/04/11 20:52:03;;;;;;;23.50;12.13;;;;;;;;;;8418011;28;20047;-91
2023/04/11 20:56:07;;;;;;;18.40;11.43;;;;;;;;;;8431007;28;20051;-90
2023/04/11 21:00:13;;;;;;;21.27;11.20;;;;;;;;;;8417233;28;20042;-90
2023/04/11 21:04:17;;;;;;;17.42;10.60;;;;;;;;;;8428540;28;20129;-90
2023/04/11 21:08:22;;;;;;;16.67;9.60;;;;;;;;;;8423534;28;20040;-90
2023/04/11 21:12:25;;;;;;;12.05;8.10;;;;;;;;;;8419659;28;20036;-90
2023/04/11 21:16:30;;;;;;;16.15;9.57;;;;;;;;;;8421150;28;20495;-93
2023/04/11 21:20:33;;;;;;;13.70;8.40;;;;;;;;;;8426996;28;20047;-91
2023/04/11 21:24:36;;;;;;;8.93;5.00;;;;;;;;;;8432497;28;20415;-90
2023/04/11 21:28:39;;;;;;;12.43;7.35;;;;;;;;;;8419421;28;20453;-90
2023/04/11 21:32:44;;;;;;;11.57;7.57;;;;;;;;;;8424482;28;20058;-91
2023/04/11 21:36:46;;;;;;;18.70;9.07;;;;;;;;;;8420539;28;20044;-90
2023/04/11 21:40:50;;;;;;;14.27;8.00;;;;;;;;;;8431840;28;20043;-91
2023/04/11 21:44:53;;;;;;;13.75;6.82;;;;;;;;;;8434972;28;20502;-91
2023/04/11 21:48:58;;;;;;;13.27;7.43;;;;;;;;;;8433038;28;20040;-93
2023/04/11 21:53:01;;;;;;;10.10;5.82;;;;;;;;;;8428522;28;20075;-93
2023/04/11 21:57:04;;;;;;;9.20;5.38;;;;;;;;;;8429322;28;20055;-90
2023/04/11 22:01:10;;;;;;;8.93;5.30;;;;;;;;;;8421635;28;20066;-91
2023/04/11 22:05:20;;;;;;;7.80;4.20;;;;;;;;;;8431667;28;20099;-93
2023/04/11 22:09:23;;;;;;;8.40;4.60;;;;;;;;;;8414631;28;20488;-92
2023/04/11 22:13:26;;;;;;;5.75;3.08;;;;;;;;;;8436981;28;20135;-94
2023/04/11 22:17:30;;;;;;;7.38;3.58;;;;;;;;;;8426761;28;20052;-92
2023/04/11 22:21:35;;;;;;;4.45;3.03;;;;;;;;;;8434436;28;20851;-91
2023/04/11 22:25:38;;;;;;;6.43;2.97;;;;;;;;;;8428614;28;20085;-90
2023/04/11 22:29:44;;;;;;;6.90;3.00;;;;;;;;;;8428891;28;20048;-89
2023/04/11 22:33:47;;;;;;;7.22;2.90;;;;;;;;;;8434038;28;20452;-90
2023/04/11 22:37:52;;;;;;;3.90;2.50;;;;;;;;;;8433695;28;20511;-92
2023/04/11 22:41:57;;;;;;;6.55;2.50;;;;;;;;;;8434276;28;20043;-93
2023/04/11 22:46:01;;;;;;;6.75;2.72;;;;;;;;;;8434127;28;20066;-92
2023/04/11 22:50:04;;;;;;;5.50;2.17;;;;;;;;;;8434263;28;20040;-90
2023/04/11 22:54:11;;;;;;;7.68;2.75;;;;;;;;;;8434662;28;20050;-91
2023/04/11 22:58:14;;;;;;;9.63;3.47;;;;;;;;;;8433740;28;20047;-90
2023/04/11 23:02:17;;;;;;;14.23;3.90;;;;;;;;;;8433701;28;20052;-89
2023/04/11 23:06:20;;;;;;;16.75;4.95;;;;;;;;;;8433624;28;20510;-91
2023/04/11 23:10:24;;;;;;;11.85;4.20;;;;;;;;;;8433016;28;20044;-91
2023/04/11 23:14:29;;;;;;;12.13;4.22;;;;;;;;;;8433756;28;20040;-90
2023/04/11 23:18:33;;;;;;;14.55;3.88;;;;;;;;;;8433452;28;20055;-91
2023/04/11 23:22:37;;;;;;;21.52;5.45;;;;;;;;;;8432802;28;20078;-92
2023/04/11 23:26:42;;;;;;;15.30;4.05;;;;;;;;;;8433082;28;20484;-90
2023/04/11 23:30:44;;;;;;;23.40;4.55;;;;;;;;;;8433101;28;20051;-89
2023/04/11 23:34:47;;;;;;;16.60;5.22;;;;;;;;;;8432827;28;20047;-88
2023/04/11 23:38:50;;;;;;;14.63;5.10;;;;;;;;;;8432321;28;20185;-90
2023/04/11 23:42:55;;;;;;;7.35;3.10;;;;;;;;;;8431879;28;20125;-89
2023/04/11 23:46:59;;;;;;;10.32;3.45;;;;;;;;;;8432509;28;20032;-90
2023/04/11 23:51:02;;;;;;;9.35;3.63;;;;;;;;;;8432418;28;20060;-89
2023/04/11 23:55:06;;;;;;;15.10;4.30;;;;;;;;;;8432007;28;20096;-90
2023/04/11 23:59:10;;;;;;;9.65;3.40;;;;;;;;;;8431855;28;20048;-89
